sensor_id;sensor_type;location;lat;lon;timestamp;P1;durP1;ratioP1;P2;durP2;ratioP2
9034;SDS011;4552;43.422;24.592;2023-05-29T01:00:54;5.18;;;3.67;;
9034;SDS011;4552;43.422;24.592;2023-05-29T01:03:21;4.13;;;3.67;;
9034;SDS011;4552;43.422;24.592;2023-05-29T01:05:49;2.97;;;2.40;;
9034;SDS011;4552;43.422;24.592;2023-05-29T01:08:17;3.70;;;2.93;;
9034;SDS011;4552;43.422;24.592;2023-05-29T01:10:44;3.27;;;2.57;;
9034;SDS011;4552;43.422;24.592;2023-05-29T01:13:13;3.80;;;2.60;;
9034;SDS011;4552;43.422;24.592;2023-05-29T01:15:46;2.63;;;2.43;;
9034;SDS011;4552;43.422;24.592;2023-05-29T01:18:27;3.80;;;2.93;;
9034;SDS011;4552;43.422;24.592;2023-05-29T01:21:02;3.37;;;2.63;;
9034;SDS011;4552;43.422;24.592;2023-05-29T01:23:52;2.70;;;2.38;;
9034;SDS011;4552;43.422;24.592;2023-05-29T01:29:18;2.97;;;2.50;;
9034;SDS011;4552;43.422;24.592;2023-05-29T01:31:48;4.00;;;2.87;;
9034;SDS011;4552;43.422;24.592;2023-05-29T01:34:16;2.40;;;2.17;;
9034;SDS011;4552;43.422;24.592;2023-05-29T01:36:43;2.90;;;2.33;;
9034;SDS011;4552;43.422;24.592;2023-05-29T01:39:11;2.60;;;2.07;;
9034;SDS011;4552;43.422;24.592;2023-05-29T01:41:38;4.60;;;2.90;;
9034;SDS011;4552;43.422;24.592;2023-05-29T01:44:08;2.53;;;2.23;;
9034;SDS011;4552;43.422;24.592;2023-05-29T01:46:36;4.43;;;2.50;;
9034;SDS011;4552;43.422;24.592;2023-05-29T01:49:04;7.47;;;3.13;;
9034;SDS011;4552;43.422;24.592;2023-05-29T01:51:32;2.83;;;2.53;;
9034;SDS011;4552;43.422;24.592;2023-05-29T01:54:00;1.87;;;1.77;;
9034;SDS011;4552;43.422;24.592;2023-05-29T01:56:28;2.60;;;2.30;;
9034;SDS011;4552;43.422;24.592;2023-05-29T01:58:56;2.60;;;2.20;;
9034;SDS011;4552;43.422;24.592;2023-05-29T04:00:53;3.20;;;2.53;;
9034;SDS011;4552;43.422;24.592;2023-05-29T04:03:20;5.07;;;2.63;;
9034;SDS011;4552;43.422;24.592;2023-05-29T04:05:48;4.60;;;3.20;;
9034;SDS011;4552;43.422;24.592;2023-05-29T04:08:15;2.93;;;2.67;;
9034;SDS011;4552;43.422;24.592;2023-05-29T04:10:42;5.07;;;3.17;;
9034;SDS011;4552;43.422;24.592;2023-05-29T04:13:09;2.87;;;2.57;;
9034;SDS011;4552;43.422;24.592;2023-05-29T04:15:36;5.63;;;3.13;;
9034;SDS011;4552;43.422;24.592;2023-05-29T04:18:04;5.47;;;3.70;;
9034;SDS011;4552;43.422;24.592;2023-05-29T04:20:31;4.50;;;3.20;;
9034;SDS011;4552;43.422;24.592;2023-05-29T04:22:58;3.50;;;2.87;;
9034;SDS011;4552;43.422;24.592;2023-05-29T04:25:25;3.70;;;2.47;;
9034;SDS011;4552;43.422;24.592;2023-05-29T04:27:52;5.07;;;2.53;;
9034;SDS011;4552;43.422;24.592;2023-05-29T04:30:19;4.97;;;4.10;;
9034;SDS011;4552;43.422;24.592;2023-05-29T04:32:46;3.43;;;2.60;;
9034;SDS011;4552;43.422;24.592;2023-05-29T04:35:14;5.37;;;2.73;;
9034;SDS011;4552;43.422;24.592;2023-05-29T04:37:41;3.73;;;2.77;;
9034;SDS011;4552;43.422;24.592;2023-05-29T04:40:11;6.40;;;2.40;;
9034;SDS011;4552;43.422;24.592;2023-05-29T04:42:42;2.97;;;2.47;;
9034;SDS011;4552;43.422;24.592;2023-05-29T04:45:10;4.18;;;3.20;;
9034;SDS011;4552;43.422;24.592;2023-05-29T04:47:37;7.97;;;2.17;;
9034;SDS011;4552;43.422;24.592;2023-05-29T04:50:09;14.30;;;7.43;;
9034;SDS011;4552;43.422;24.592;2023-05-29T04:52:38;14.13;;;7.13;;
9034;SDS011;4552;43.422;24.592;2023-05-29T04:55:06;10.70;;;5.47;;
9034;SDS011;4552;43.422;24.592;2023-05-29T04:57:33;7.10;;;5.50;;
9034;SDS011;4552;43.422;24.592;2023-05-29T06:52:04;11.40;;;2.80;;
9034;SDS011;4552;43.422;24.592;2023-05-29T06:54:31;4.20;;;3.00;;
9034;SDS011;4552;43.422;24.592;2023-05-29T06:56:58;4.80;;;3.13;;
9034;SDS011;4552;43.422;24.592;2023-05-29T06:59:25;4.77;;;3.60;;
9034;SDS011;4552;43.422;24.592;2023-05-29T07:01:52;3.83;;;3.10;;
9034;SDS011;4552;43.422;24.592;2023-05-29T07:04:21;5.70;;;4.07;;
9034;SDS011;4552;43.422;24.592;2023-05-29T07:06:48;7.80;;;4.30;;
9034;SDS011;4552;43.422;24.592;2023-05-29T07:09:16;3.63;;;3.07;;
9034;SDS011;4552;43.422;24.592;2023-05-29T07:11:43;4.00;;;3.17;;
9034;SDS011;4552;43.422;24.592;2023-05-29T07:14:10;7.40;;;4.13;;
9034;SDS011;4552;43.422;24.592;2023-05-29T07:16:37;4.03;;;3.63;;
9034;SDS011;4552;43.422;24.592;2023-05-29T07:19:04;6.33;;;4.27;;
9034;SDS011;4552;43.422;24.592;2023-05-29T07:21:31;7.57;;;3.80;;
9034;SDS011;4552;43.422;24.592;2023-05-29T07:27:20;5.33;;;3.57;;
9034;SDS011;4552;43.422;24.592;2023-05-29T07:29:47;6.67;;;3.97;;
9034;SDS011;4552;43.422;24.592;2023-05-29T07:32:15;9.30;;;3.63;;
9034;SDS011;4552;43.422;24.592;2023-05-29T07:34:42;5.07;;;3.30;;
9034;SDS011;4552;43.422;24.592;2023-05-29T07:37:09;5.70;;;4.00;;
9034;SDS011;4552;43.422;24.592;2023-05-29T07:49:27;6.63;;;2.97;;
9034;SDS011;4552;43.422;24.592;2023-05-29T07:51:55;4.37;;;2.93;;
9034;SDS011;4552;43.422;24.592;2023-05-29T07:54:22;3.23;;;2.93;;
9034;SDS011;4552;43.422;24.592;2023-05-29T07:56:49;4.27;;;3.37;;
9034;SDS011;4552;43.422;24.592;2023-05-29T07:59:16;4.57;;;2.67;;
9034;SDS011;4552;43.422;24.592;2023-05-29T08:01:43;4.20;;;3.17;;
9034;SDS011;4552;43.422;24.592;2023-05-29T08:04:10;4.30;;;2.97;;
9034;SDS011;4552;43.422;24.592;2023-05-29T08:06:39;5.20;;;3.47;;
9034;SDS011;4552;43.422;24.592;2023-05-29T08:09:07;6.17;;;3.43;;
9034;SDS011;4552;43.422;24.592;2023-05-29T08:11:35;4.20;;;2.87;;
9034;SDS011;4552;43.422;24.592;2023-05-29T08:14:02;3.03;;;2.13;;
9034;SDS011;4552;43.422;24.592;2023-05-29T08:16:29;3.33;;;2.20;;
9034;SDS011;4552;43.422;24.592;2023-05-29T08:18:58;9.63;;;2.40;;
9034;SDS011;4552;43.422;24.592;2023-05-29T08:21:25;2.70;;;2.43;;
9034;SDS011;4552;43.422;24.592;2023-05-29T08:30:37;8.23;;;6.87;;
9034;SDS011;4552;43.422;24.592;2023-05-29T08:33:03;12.23;;;8.67;;
9034;SDS011;4552;43.422;24.592;2023-05-29T08:35:30;11.27;;;6.50;;
9034;SDS011;4552;43.422;24.592;2023-05-29T09:18:32;5.70;;;4.57;;
9034;SDS011;4552;43.422;24.592;2023-05-29T09:20:59;5.07;;;4.37;;
9034;SDS011;4552;43.422;24.592;2023-05-29T09:23:26;6.23;;;4.03;;
9034;SDS011;4552;43.422;24.592;2023-05-29T09:25:53;6.30;;;4.53;;
9034;SDS011;4552;43.422;24.592;2023-05-29T09:28:21;6.40;;;5.20;;
9034;SDS011;4552;43.422;24.592;2023-05-29T09:30:50;10.73;;;4.33;;
9034;SDS011;4552;43.422;24.592;2023-05-29T09:33:17;4.63;;;3.97;;
9034;SDS011;4552;43.422;24.592;2023-05-29T09:35:46;5.53;;;4.17;;
9034;SDS011;4552;43.422;24.592;2023-05-29T09:38:15;15.17;;;8.77;;
9034;SDS011;4552;43.422;24.592;2023-05-29T09:40:44;23.27;;;16.93;;
9034;SDS011;4552;43.422;24.592;2023-05-29T09:43:12;14.13;;;9.77;;
9034;SDS011;4552;43.422;24.592;2023-05-29T09:45:43;7.80;;;6.03;;
9034;SDS011;4552;43.422;24.592;2023-05-29T09:48:12;4.10;;;3.60;;
9034;SDS011;4552;43.422;24.592;2023-05-29T09:50:40;4.50;;;3.60;;
9034;SDS011;4552;43.422;24.592;2023-05-29T09:53:20;4.63;;;4.00;;
9034;SDS011;4552;43.422;24.592;2023-05-29T09:55:49;6.40;;;4.20;;
9034;SDS011;4552;43.422;24.592;2023-05-29T09:58:17;5.07;;;3.87;;
9034;SDS011;4552;43.422;24.592;2023-05-29T10:00:44;5.77;;;4.50;;
9034;SDS011;4552;43.422;24.592;2023-05-29T10:03:12;6.27;;;4.30;;
9034;SDS011;4552;43.422;24.592;2023-05-29T10:05:39;5.07;;;4.03;;
9034;SDS011;4552;43.422;24.592;2023-05-29T10:08:09;5.13;;;3.90;;
9034;SDS011;4552;43.422;24.592;2023-05-29T10:10:43;15.57;;;9.53;;
9034;SDS011;4552;43.422;24.592;2023-05-29T10:13:12;19.17;;;15.57;;
9034;SDS011;4552;43.422;24.592;2023-05-29T10:15:41;8.00;;;5.23;;
9034;SDS011;4552;43.422;24.592;2023-05-29T10:18:12;9.20;;;5.77;;
9034;SDS011;4552;43.422;24.592;2023-05-29T10:20:45;9.30;;;5.60;;
9034;SDS011;4552;43.422;24.592;2023-05-29T10:23:16;5.53;;;4.93;;
9034;SDS011;4552;43.422;24.592;2023-05-29T10:25:49;5.93;;;3.88;;
9034;SDS011;4552;43.422;24.592;2023-05-29T10:28:22;4.63;;;4.07;;
9034;SDS011;4552;43.422;24.592;2023-05-29T10:31:19;4.37;;;3.97;;
9034;SDS011;4552;43.422;24.592;2023-05-29T11:16:54;4.47;;;3.53;;
9034;SDS011;4552;43.422;24.592;2023-05-29T11:19:25;6.40;;;3.53;;
9034;SDS011;4552;43.422;24.592;2023-05-29T11:21:57;5.67;;;3.40;;
9034;SDS011;4552;43.422;24.592;2023-05-29T11:24:34;4.57;;;3.73;;
9034;SDS011;4552;43.422;24.592;2023-05-29T11:27:03;4.37;;;3.87;;
9034;SDS011;4552;43.422;24.592;2023-05-29T11:29:33;4.30;;;3.87;;
9034;SDS011;4552;43.422;24.592;2023-05-29T11:32:03;6.60;;;3.73;;
9034;SDS011;4552;43.422;24.592;2023-05-29T11:34:42;5.97;;;4.47;;
9034;SDS011;4552;43.422;24.592;2023-05-29T11:37:12;5.50;;;4.30;;
9034;SDS011;4552;43.422;24.592;2023-05-29T11:39:40;6.63;;;5.07;;
9034;SDS011;4552;43.422;24.592;2023-05-29T11:42:07;6.55;;;5.80;;
9034;SDS011;4552;43.422;24.592;2023-05-29T11:44:34;8.90;;;5.70;;
9034;SDS011;4552;43.422;24.592;2023-05-29T11:47:04;8.27;;;5.80;;
9034;SDS011;4552;43.422;24.592;2023-05-29T11:49:34;7.40;;;5.63;;
9034;SDS011;4552;43.422;24.592;2023-05-29T11:52:05;7.63;;;5.47;;
9034;SDS011;4552;43.422;24.592;2023-05-29T11:54:33;7.00;;;6.00;;
9034;SDS011;4552;43.422;24.592;2023-05-29T11:57:00;6.93;;;5.83;;
9034;SDS011;4552;43.422;24.592;2023-05-29T11:59:28;5.80;;;5.07;;
9034;SDS011;4552;43.422;24.592;2023-05-29T12:08:40;7.10;;;5.50;;
9034;SDS011;4552;43.422;24.592;2023-05-29T12:11:07;6.53;;;5.37;;
9034;SDS011;4552;43.422;24.592;2023-05-29T12:13:35;8.87;;;5.27;;
9034;SDS011;4552;43.422;24.592;2023-05-29T12:16:03;4.90;;;4.40;;
9034;SDS011;4552;43.422;24.592;2023-05-29T12:22:30;4.67;;;4.00;;
9034;SDS011;4552;43.422;24.592;2023-05-29T12:25:04;10.13;;;4.97;;
9034;SDS011;4552;43.422;24.592;2023-05-29T12:27:32;6.10;;;4.83;;
9034;SDS011;4552;43.422;24.592;2023-05-29T12:30:02;5.20;;;4.67;;
9034;SDS011;4552;43.422;24.592;2023-05-29T12:35:52;5.80;;;5.20;;
9034;SDS011;4552;43.422;24.592;2023-05-29T12:38:19;6.77;;;5.00;;
9034;SDS011;4552;43.422;24.592;2023-05-29T12:40:49;13.37;;;5.40;;
9034;SDS011;4552;43.422;24.592;2023-05-29T12:43:16;5.93;;;5.37;;
9034;SDS011;4552;43.422;24.592;2023-05-29T12:45:43;6.20;;;5.57;;
9034;SDS011;4552;43.422;24.592;2023-05-29T12:48:10;5.47;;;4.93;;
9034;SDS011;4552;43.422;24.592;2023-05-29T12:50:37;6.53;;;5.07;;
9034;SDS011;4552;43.422;24.592;2023-05-29T12:53:06;7.40;;;4.53;;
9034;SDS011;4552;43.422;24.592;2023-05-29T12:55:34;6.20;;;4.67;;
9034;SDS011;4552;43.422;24.592;2023-05-29T12:58:05;6.50;;;5.60;;
9034;SDS011;4552;43.422;24.592;2023-05-29T13:00:33;10.00;;;7.93;;
9034;SDS011;4552;43.422;24.592;2023-05-29T15:21:37;3.73;;;2.00;;
9034;SDS011;4552;43.422;24.592;2023-05-29T15:24:04;4.93;;;2.70;;
9034;SDS011;4552;43.422;24.592;2023-05-29T15:26:33;2.90;;;2.60;;
9034;SDS011;4552;43.422;24.592;2023-05-29T15:29:00;2.80;;;2.00;;
9034;SDS011;4552;43.422;24.592;2023-05-29T15:31:27;5.30;;;3.23;;
9034;SDS011;4552;43.422;24.592;2023-05-29T15:33:54;2.33;;;2.10;;
9034;SDS011;4552;43.422;24.592;2023-05-29T15:36:22;4.70;;;2.43;;
9034;SDS011;4552;43.422;24.592;2023-05-29T15:38:49;2.67;;;2.30;;
9034;SDS011;4552;43.422;24.592;2023-05-29T15:41:16;2.20;;;2.00;;
9034;SDS011;4552;43.422;24.592;2023-05-29T15:43:43;2.87;;;2.20;;
9034;SDS011;4552;43.422;24.592;2023-05-29T15:46:10;6.27;;;3.30;;
9034;SDS011;4552;43.422;24.592;2023-05-29T15:48:37;5.70;;;3.30;;
9034;SDS011;4552;43.422;24.592;2023-05-29T15:51:03;5.37;;;3.57;;
9034;SDS011;4552;43.422;24.592;2023-05-29T15:53:32;3.17;;;2.73;;
9034;SDS011;4552;43.422;24.592;2023-05-29T15:55:59;3.67;;;2.50;;
9034;SDS011;4552;43.422;24.592;2023-05-29T15:58:25;1.93;;;1.83;;
9034;SDS011;4552;43.422;24.592;2023-05-29T16:00:52;2.73;;;2.23;;
9034;SDS011;4552;43.422;24.592;2023-05-29T16:03:20;3.03;;;2.40;;
9034;SDS011;4552;43.422;24.592;2023-05-29T16:05:47;4.00;;;3.50;;
9034;SDS011;4552;43.422;24.592;2023-05-29T16:08:14;5.87;;;4.50;;
9034;SDS011;4552;43.422;24.592;2023-05-29T16:10:42;4.70;;;4.27;;
9034;SDS011;4552;43.422;24.592;2023-05-29T16:13:09;3.33;;;3.03;;
9034;SDS011;4552;43.422;24.592;2023-05-29T16:15:36;3.67;;;2.20;;
9034;SDS011;4552;43.422;24.592;2023-05-29T16:29:06;3.67;;;2.80;;
9034;SDS011;4552;43.422;24.592;2023-05-29T16:31:33;3.10;;;2.60;;
9034;SDS011;4552;43.422;24.592;2023-05-29T16:34:02;3.13;;;2.70;;
9034;SDS011;4552;43.422;24.592;2023-05-29T16:36:29;2.63;;;2.20;;
9034;SDS011;4552;43.422;24.592;2023-05-29T16:38:56;5.03;;;3.57;;
9034;SDS011;4552;43.422;24.592;2023-05-29T16:41:23;4.00;;;2.90;;
9034;SDS011;4552;43.422;24.592;2023-05-29T16:43:51;3.30;;;2.33;;
9034;SDS011;4552;43.422;24.592;2023-05-29T16:46:19;3.87;;;2.47;;
9034;SDS011;4552;43.422;24.592;2023-05-29T16:52:08;3.33;;;2.63;;
9034;SDS011;4552;43.422;24.592;2023-05-29T16:54:35;5.73;;;3.07;;
9034;SDS011;4552;43.422;24.592;2023-05-29T16:57:05;4.90;;;2.80;;
9034;SDS011;4552;43.422;24.592;2023-05-29T17:20:14;2.90;;;2.70;;
9034;SDS011;4552;43.422;24.592;2023-05-29T17:22:41;3.83;;;2.77;;
9034;SDS011;4552;43.422;24.592;2023-05-29T17:25:08;3.50;;;2.70;;
9034;SDS011;4552;43.422;24.592;2023-05-29T17:27:35;3.22;;;2.92;;
9034;SDS011;4552;43.422;24.592;2023-05-29T17:30:04;7.33;;;4.47;;
9034;SDS011;4552;43.422;24.592;2023-05-29T17:32:31;6.27;;;3.03;;
9034;SDS011;4552;43.422;24.592;2023-05-29T17:34:58;3.77;;;2.80;;
9034;SDS011;4552;43.422;24.592;2023-05-29T17:37:27;13.27;;;6.53;;
9034;SDS011;4552;43.422;24.592;2023-05-29T17:39:54;3.20;;;2.90;;
9034;SDS011;4552;43.422;24.592;2023-05-29T17:42:21;8.73;;;3.23;;
9034;SDS011;4552;43.422;24.592;2023-05-29T17:44:48;3.27;;;2.93;;
9034;SDS011;4552;43.422;24.592;2023-05-29T17:47:16;4.60;;;2.70;;
9034;SDS011;4552;43.422;24.592;2023-05-29T17:49:43;4.07;;;2.90;;
9034;SDS011;4552;43.422;24.592;2023-05-29T17:52:13;2.50;;;2.30;;
9034;SDS011;4552;43.422;24.592;2023-05-29T17:54:42;6.50;;;3.70;;
9034;SDS011;4552;43.422;24.592;2023-05-29T17:57:08;7.57;;;4.57;;
9034;SDS011;4552;43.422;24.592;2023-05-29T17:59:38;4.10;;;3.40;;
9034;SDS011;4552;43.422;24.592;2023-05-29T18:02:05;4.77;;;3.47;;
9034;SDS011;4552;43.422;24.592;2023-05-29T18:04:32;6.50;;;3.80;;
9034;SDS011;4552;43.422;24.592;2023-05-29T18:06:59;4.43;;;3.50;;
9034;SDS011;4552;43.422;24.592;2023-05-29T18:09:26;5.77;;;3.20;;
9034;SDS011;4552;43.422;24.592;2023-05-29T18:11:55;4.63;;;3.10;;
9034;SDS011;4552;43.422;24.592;2023-05-29T18:14:22;3.80;;;3.28;;
9034;SDS011;4552;43.422;24.592;2023-05-29T18:16:49;8.97;;;3.73;;
9034;SDS011;4552;43.422;24.592;2023-05-29T18:19:15;6.13;;;3.50;;
9034;SDS011;4552;43.422;24.592;2023-05-29T18:21:42;3.47;;;3.17;;
9034;SDS011;4552;43.422;24.592;2023-05-29T18:24:09;4.47;;;4.00;;
9034;SDS011;4552;43.422;24.592;2023-05-29T18:26:36;5.10;;;3.30;;
9034;SDS011;4552;43.422;24.592;2023-05-29T18:29:07;7.33;;;4.60;;
9034;SDS011;4552;43.422;24.592;2023-05-29T18:47:59;4.90;;;3.97;;
9034;SDS011;4552;43.422;24.592;2023-05-29T18:50:26;4.87;;;3.37;;
9034;SDS011;4552;43.422;24.592;2023-05-29T18:52:53;5.83;;;3.60;;
9034;SDS011;4552;43.422;24.592;2023-05-29T18:55:20;5.13;;;3.33;;
9034;SDS011;4552;43.422;24.592;2023-05-29T18:58:01;4.00;;;3.40;;
9034;SDS011;4552;43.422;24.592;2023-05-29T19:00:28;3.83;;;3.27;;
9034;SDS011;4552;43.422;24.592;2023-05-29T19:02:56;4.97;;;3.30;;
9034;SDS011;4552;43.422;24.592;2023-05-29T19:05:23;4.97;;;2.93;;
9034;SDS011;4552;43.422;24.592;2023-05-29T19:07:50;3.33;;;3.03;;
9034;SDS011;4552;43.422;24.592;2023-05-29T19:10:20;4.30;;;3.43;;
9034;SDS011;4552;43.422;24.592;2023-05-29T19:12:47;4.40;;;3.30;;
9034;SDS011;4552;43.422;24.592;2023-05-29T19:15:14;3.20;;;2.90;;
9034;SDS011;4552;43.422;24.592;2023-05-29T19:17:40;5.80;;;3.30;;
9034;SDS011;4552;43.422;24.592;2023-05-29T19:20:10;4.07;;;2.67;;
9034;SDS011;4552;43.422;24.592;2023-05-29T19:22:40;6.70;;;3.33;;
9034;SDS011;4552;43.422;24.592;2023-05-29T19:25:06;5.63;;;3.87;;
9034;SDS011;4552;43.422;24.592;2023-05-29T19:27:34;4.63;;;4.00;;
9034;SDS011;4552;43.422;24.592;2023-05-29T19:30:02;7.60;;;5.10;;
9034;SDS011;4552;43.422;24.592;2023-05-29T19:32:31;8.93;;;5.00;;
9034;SDS011;4552;43.422;24.592;2023-05-29T19:35:04;5.47;;;3.63;;
9034;SDS011;4552;43.422;24.592;2023-05-29T19:37:34;6.47;;;3.23;;
9034;SDS011;4552;43.422;24.592;2023-05-29T19:40:01;6.13;;;4.07;;
9034;SDS011;4552;43.422;24.592;2023-05-29T19:42:28;6.27;;;4.43;;
9034;SDS011;4552;43.422;24.592;2023-05-29T19:44:56;5.20;;;3.93;;
9034;SDS011;4552;43.422;24.592;2023-05-29T20:10:40;5.85;;;3.80;;
9034;SDS011;4552;43.422;24.592;2023-05-29T20:13:07;4.90;;;3.40;;
9034;SDS011;4552;43.422;24.592;2023-05-29T20:15:34;5.20;;;3.30;;
9034;SDS011;4552;43.422;24.592;2023-05-29T20:18:01;6.93;;;3.40;;
9034;SDS011;4552;43.422;24.592;2023-05-29T20:20:28;5.97;;;3.10;;
9034;SDS011;4552;43.422;24.592;2023-05-29T20:22:55;6.20;;;3.87;;
9034;SDS011;4552;43.422;24.592;2023-05-29T20:25:23;3.97;;;3.23;;
9034;SDS011;4552;43.422;24.592;2023-05-29T20:27:51;9.53;;;3.30;;
9034;SDS011;4552;43.422;24.592;2023-05-29T20:30:18;6.17;;;3.00;;
9034;SDS011;4552;43.422;24.592;2023-05-29T20:56:20;4.67;;;3.30;;
9034;SDS011;4552;43.422;24.592;2023-05-29T20:58:47;6.23;;;3.40;;
9034;SDS011;4552;43.422;24.592;2023-05-29T21:33:34;5.73;;;3.43;;
9034;SDS011;4552;43.422;24.592;2023-05-29T21:36:15;3.43;;;2.93;;
9034;SDS011;4552;43.422;24.592;2023-05-29T21:38:42;3.73;;;2.80;;
9034;SDS011;4552;43.422;24.592;2023-05-29T21:41:10;6.27;;;3.00;;
9034;SDS011;4552;43.422;24.592;2023-05-29T21:43:37;3.03;;;2.73;;
9034;SDS011;4552;43.422;24.592;2023-05-29T21:46:04;3.50;;;3.20;;
9034;SDS011;4552;43.422;24.592;2023-05-29T21:48:32;4.90;;;2.93;;
9034;SDS011;4552;43.422;24.592;2023-05-29T21:51:01;4.53;;;3.10;;
9034;SDS011;4552;43.422;24.592;2023-05-29T21:53:28;4.73;;;3.10;;
9034;SDS011;4552;43.422;24.592;2023-05-29T21:55:55;4.23;;;3.17;;
9034;SDS011;4552;43.422;24.592;2023-05-29T21:58:22;3.97;;;3.17;;
9034;SDS011;4552;43.422;24.592;2023-05-29T22:00:49;6.40;;;4.20;;
9034;SDS011;4552;43.422;24.592;2023-05-29T22:56:53;3.67;;;3.33;;
9034;SDS011;4552;43.422;24.592;2023-05-29T22:59:21;5.13;;;4.10;;
9034;SDS011;4552;43.422;24.592;2023-05-29T23:01:48;4.63;;;4.00;;
9034;SDS011;4552;43.422;24.592;2023-05-29T23:04:15;6.67;;;3.90;;
9034;SDS011;4552;43.422;24.592;2023-05-29T23:06:42;4.20;;;3.80;;
9034;SDS011;4552;43.422;24.592;2023-05-29T23:09:09;4.00;;;3.60;;
9034;SDS011;4552;43.422;24.592;2023-05-29T23:11:36;4.43;;;3.57;;
9034;SDS011;4552;43.422;24.592;2023-05-29T23:14:05;4.47;;;3.13;;
9034;SDS011;4552;43.422;24.592;2023-05-29T23:16:32;4.00;;;3.37;;
9034;SDS011;4552;43.422;24.592;2023-05-29T23:18:59;5.27;;;3.47;;
9034;SDS011;4552;43.422;24.592;2023-05-29T23:21:26;3.80;;;3.30;;
9034;SDS011;4552;43.422;24.592;2023-05-29T23:23:53;3.77;;;3.30;;
9034;SDS011;4552;43.422;24.592;2023-05-29T23:26:20;4.17;;;3.50;;
9034;SDS011;4552;43.422;24.592;2023-05-29T23:28:47;3.87;;;3.23;;
9034;SDS011;4552;43.422;24.592;2023-05-29T23:31:16;3.50;;;3.10;;
9034;SDS011;4552;43.422;24.592;2023-05-29T23:33:43;5.40;;;3.97;;
9034;SDS011;4552;43.422;24.592;2023-05-29T23:36:12;5.77;;;4.00;;
9034;SDS011;4552;43.422;24.592;2023-05-29T23:38:39;5.60;;;4.90;;
9034;SDS011;4552;43.422;24.592;2023-05-29T23:41:05;5.37;;;4.80;;
9034;SDS011;4552;43.422;24.592;2023-05-29T23:43:32;4.40;;;3.80;;
9034;SDS011;4552;43.422;24.592;2023-05-29T23:46:00;5.87;;;4.13;;
